createdAt,value
2023-04-24T00:01:44.645Z,9.93
2023-04-24T00:05:11.552Z,9.27
2023-04-24T00:12:56.548Z,10.30
2023-04-24T00:24:43.187Z,10.93
2023-04-24T00:28:50.684Z,10.45
2023-04-24T00:36:55.807Z,10.57
2023-04-24T00:41:11.843Z,11.93
2023-04-24T00:49:19.061Z,10.25
2023-04-24T01:10:39.714Z,11.10
2023-04-24T01:14:30.442Z,10.93
2023-04-24T01:21:53.221Z,11.48
2023-04-24T01:29:22.436Z,9.80
2023-04-24T01:37:31.008Z,11.95
2023-04-24T01:41:06.574Z,10.57
2023-04-24T01:44:27.650Z,11.23
2023-04-24T01:47:59.559Z,11.60
2023-04-24T02:14:40.436Z,11.20
2023-04-24T02:33:52.955Z,10.45
2023-04-24T02:36:55.185Z,11.03
2023-04-24T02:49:53.385Z,10.23
2023-04-24T02:58:41.516Z,9.80
2023-04-24T03:02:01.671Z,9.47
2023-04-24T03:05:05.459Z,9.90
2023-04-24T03:08:07.490Z,9.70
2023-04-24T03:16:21.126Z,9.10
2023-04-24T03:28:02.447Z,9.25
2023-04-24T03:32:23.975Z,9.47
2023-04-24T03:35:42.219Z,9.30
2023-04-24T03:38:44.446Z,9.87
2023-04-24T03:43:23.652Z,10.48
2023-04-24T03:47:52.931Z,10.30
2023-04-24T03:55:49.787Z,10.30
2023-04-24T03:59:51.417Z,11.40
2023-04-24T04:03:02.490Z,11.50
2023-04-24T04:15:58.621Z,11.07
2023-04-24T04:45:23.519Z,10.80
2023-04-24T04:50:39.580Z,9.07
2023-04-24T04:58:41.811Z,10.52
2023-04-24T05:06:41.630Z,8.82
2023-04-24T05:10:33.676Z,9.65
2023-04-24T05:13:41.454Z,9.05
2023-04-24T05:17:13.678Z,9.88
2023-04-24T05:21:23.075Z,9.32
2023-04-24T05:25:36.308Z,9.50
2023-04-24T05:29:34.173Z,10.32
2023-04-24T05:32:47.930Z,9.02
2023-04-24T05:36:22.510Z,9.93
2023-04-24T05:39:51.785Z,9.80
2023-04-24T05:50:50.069Z,10.15
2023-04-24T05:53:52.566Z,10.88
2023-04-24T05:57:20.898Z,22.13
2023-04-24T06:01:29.055Z,10.65
2023-04-24T06:05:09.994Z,12.10
2023-04-24T06:08:59.878Z,10.38
2023-04-24T06:16:44.509Z,9.18
2023-04-24T06:20:01.496Z,9.20
2023-04-24T06:23:57.583Z,9.55
2023-04-24T06:27:34.557Z,8.60
2023-04-24T06:30:37.783Z,9.25
2023-04-24T06:34:38.309Z,8.73
2023-04-24T06:38:19.268Z,8.23
2023-04-24T06:42:06.037Z,8.43
2023-04-24T06:45:31.438Z,9.27
2023-04-24T06:49:36.628Z,9.20
2023-04-24T06:53:14.807Z,8.73
2023-04-24T06:56:57.185Z,8.60
2023-04-24T07:00:32.702Z,9.85
2023-04-24T07:03:52.977Z,9.00
2023-04-24T07:07:00.342Z,9.13
2023-04-24T07:10:12.771Z,8.27
2023-04-24T07:17:18.573Z,10.00
2023-04-24T07:24:36.255Z,8.63
2023-04-24T07:28:13.692Z,8.23
2023-04-24T07:31:39.871Z,8.90
2023-04-24T07:35:06.842Z,7.82
2023-04-24T07:38:26.991Z,7.78
2023-04-24T07:41:29.163Z,7.50
2023-04-24T07:45:07.001Z,7.20
2023-04-24T07:48:34.018Z,6.45
2023-04-24T07:52:07.032Z,7.60
2023-04-24T08:02:33.263Z,7.55
2023-04-24T08:05:58.152Z,7.55
2023-04-24T08:09:14.814Z,7.75
2023-04-24T08:12:25.462Z,8.32
2023-04-24T08:16:27.580Z,12.43
2023-04-24T08:20:09.106Z,8.88
2023-04-24T08:23:29.210Z,7.57
2023-04-24T08:26:34.358Z,7.95
2023-04-24T08:30:05.116Z,6.80
2023-04-24T08:41:25.311Z,7.63
2023-04-24T08:45:06.051Z,7.97
2023-04-24T08:48:32.118Z,8.38
2023-04-24T08:51:53.748Z,8.60
2023-04-24T08:55:08.851Z,8.23
2023-04-24T08:58:15.878Z,8.48
2023-04-24T09:01:20.599Z,8.52
2023-04-24T09:04:45.829Z,8.98
2023-04-24T09:07:55.682Z,8.27
2023-04-24T09:10:59.461Z,9.73
2023-04-24T09:14:02.444Z,8.48
2023-04-24T09:17:04.862Z,8.27
2023-04-24T09:20:13.542Z,8.73
2023-04-24T09:23:22.251Z,8.32
2023-04-24T09:26:29.924Z,7.88
2023-04-24T09:29:34.125Z,7.13
2023-04-24T09:32:36.529Z,8.32
2023-04-24T09:35:43.631Z,7.57
2023-04-24T09:38:59.060Z,7.88
2023-04-24T09:42:03.486Z,8.55
2023-04-24T09:45:15.130Z,7.53
2023-04-24T09:48:22.033Z,8.40
2023-04-24T09:51:38.049Z,7.07
2023-04-24T09:54:41.332Z,7.30
2023-04-24T09:57:56.425Z,6.03
2023-04-24T10:00:59.201Z,5.95
2023-04-24T10:04:02.341Z,6.10
2023-04-24T10:07:10.785Z,6.10
2023-04-24T10:10:13.387Z,6.35
2023-04-24T10:13:16.840Z,7.22
2023-04-24T10:16:22.555Z,7.32
2023-04-24T10:19:27.542Z,6.47
2023-04-24T10:22:31.378Z,4.50
2023-04-24T10:25:36.274Z,4.00
2023-04-24T10:28:38.571Z,4.53
2023-04-24T10:31:41.775Z,3.90
2023-04-24T10:34:43.829Z,5.30
2023-04-24T10:37:58.663Z,5.25
2023-04-24T10:41:20.576Z,4.15
2023-04-24T10:44:24.961Z,4.70
2023-04-24T10:47:27.306Z,4.57
2023-04-24T10:50:42.851Z,4.40
2023-04-24T10:53:45.078Z,4.15
2023-04-24T10:56:48.629Z,4.80
2023-04-24T11:00:14.432Z,4.05
2023-04-24T11:03:28.728Z,3.53
2023-04-24T11:06:36.184Z,3.20
2023-04-24T11:09:41.465Z,3.72
2023-04-24T11:13:00.031Z,3.58
2023-04-24T11:16:24.826Z,3.50
2023-04-24T11:19:35.934Z,3.45
2023-04-24T11:22:59.051Z,3.50
2023-04-24T11:26:18.262Z,3.15
2023-04-24T11:29:39.194Z,3.25
2023-04-24T11:32:44.297Z,3.10
2023-04-24T11:35:47.340Z,3.28
2023-04-24T11:38:49.523Z,2.92
2023-04-24T11:41:52.427Z,3.40
2023-04-24T11:45:01.105Z,3.45
2023-04-24T11:48:04.630Z,3.30
2023-04-24T11:51:09.534Z,2.90
2023-04-24T11:54:12.525Z,2.80
2023-04-24T11:57:15.515Z,2.75
2023-04-24T12:04:03.164Z,2.83
2023-04-24T12:07:12.870Z,3.00
2023-04-24T12:10:31.378Z,2.92
2023-04-24T12:13:34.281Z,2.55
2023-04-24T12:16:43.128Z,2.53
2023-04-24T12:19:49.299Z,3.50
2023-04-24T12:23:20.568Z,3.55
2023-04-24T12:26:31.325Z,3.00
2023-04-24T12:29:33.682Z,2.67
2023-04-24T12:32:38.756Z,2.47
2023-04-24T12:35:42.229Z,3.80
2023-04-24T12:38:47.508Z,2.72
2023-04-24T12:41:58.219Z,2.55
2023-04-24T12:45:04.282Z,2.53
2023-04-24T12:48:10.113Z,2.97
2023-04-24T12:51:14.408Z,2.90
2023-04-24T12:54:16.767Z,2.75
2023-04-24T12:57:19.959Z,2.90
2023-04-24T13:00:22.780Z,2.50
2023-04-24T13:03:31.853Z,3.13
2023-04-24T13:06:34.934Z,2.97
2023-04-24T13:09:37.938Z,2.90
2023-04-24T13:12:41.271Z,3.88
2023-04-24T13:15:46.024Z,2.00
2023-04-24T13:18:48.322Z,2.20
2023-04-24T13:21:54.233Z,2.20
2023-04-24T13:24:57.377Z,2.40
2023-04-24T13:27:59.825Z,1.70
2023-04-24T13:31:02.116Z,1.95
2023-04-24T13:34:04.740Z,2.22
2023-04-24T13:37:10.836Z,1.90
2023-04-24T13:40:13.636Z,1.40
2023-04-24T13:43:21.192Z,1.50
2023-04-24T13:46:23.877Z,4.63
2023-04-24T13:49:27.092Z,2.20
2023-04-24T13:52:32.662Z,2.47
2023-04-24T13:55:35.461Z,1.63
2023-04-24T13:58:38.136Z,1.70
2023-04-24T14:01:40.813Z,1.70
2023-04-24T14:04:43.676Z,1.98
2023-04-24T14:07:46.132Z,2.53
2023-04-24T14:10:48.865Z,1.80
2023-04-24T14:13:51.287Z,1.60
2023-04-24T14:16:53.660Z,1.50
2023-04-24T14:19:57.746Z,2.05
2023-04-24T14:23:00.207Z,1.50
2023-04-24T14:26:02.254Z,1.30
2023-04-24T14:29:14.041Z,1.50
2023-04-24T14:32:17.030Z,1.60
2023-04-24T14:35:19.373Z,2.10
2023-04-24T14:38:23.158Z,2.10
2023-04-24T14:41:25.469Z,1.60
2023-04-24T14:44:27.455Z,1.98
2023-04-24T14:47:30.420Z,1.70
2023-04-24T14:50:32.482Z,1.90
2023-04-24T14:53:35.446Z,1.83
2023-04-24T14:56:38.261Z,2.00
2023-04-24T14:59:41.184Z,1.90
2023-04-24T15:02:45.696Z,1.70
2023-04-24T15:05:48.630Z,1.88
2023-04-24T15:08:50.936Z,2.30
2023-04-24T15:11:53.448Z,2.30
2023-04-24T15:14:55.942Z,2.50
2023-04-24T15:17:58.354Z,2.20
2023-04-24T15:21:01.754Z,3.08
2023-04-24T15:24:05.558Z,2.60
2023-04-24T15:27:11.159Z,3.92
2023-04-24T15:30:14.509Z,4.82
2023-04-24T15:33:16.652Z,3.00
2023-04-24T15:36:19.177Z,3.03
2023-04-24T15:39:25.596Z,3.00
2023-04-24T15:42:31.466Z,3.45
2023-04-24T15:45:54.802Z,7.40
2023-04-24T15:48:57.487Z,19.02
2023-04-24T15:51:59.600Z,19.42
2023-04-24T15:55:04.677Z,13.13
2023-04-24T15:58:07.015Z,12.60
2023-04-24T16:01:09.347Z,8.57
2023-04-24T16:04:12.096Z,9.93
2023-04-24T16:07:16.013Z,8.35
2023-04-24T16:10:18.412Z,7.68
2023-04-24T16:13:20.981Z,6.47
2023-04-24T16:16:25.390Z,7.55
2023-04-24T16:19:31.247Z,8.80
2023-04-24T16:22:33.277Z,5.07
2023-04-24T16:25:35.920Z,4.78
2023-04-24T16:28:39.019Z,4.18
2023-04-24T16:31:41.876Z,3.58
2023-04-24T16:34:44.188Z,3.80
2023-04-24T16:37:46.755Z,3.47
2023-04-24T16:40:48.955Z,3.67
2023-04-24T16:43:51.615Z,3.65
2023-04-24T16:46:53.859Z,5.53
2023-04-24T16:49:56.550Z,7.30
2023-04-24T16:52:58.626Z,7.53
2023-04-24T16:56:01.113Z,7.15
2023-04-24T16:59:03.692Z,4.93
2023-04-24T17:02:06.208Z,4.45
2023-04-24T17:05:08.539Z,5.43
2023-04-24T17:08:10.771Z,7.50
2023-04-24T17:11:13.919Z,14.82
2023-04-24T17:14:26.433Z,14.35
2023-04-24T17:17:28.519Z,8.02
2023-04-24T17:20:33.750Z,6.32
2023-04-24T17:23:40.236Z,6.57
2023-04-24T17:26:50.488Z,5.90
2023-04-24T17:29:53.616Z,5.85
2023-04-24T17:32:56.240Z,4.18
2023-04-24T17:35:59.890Z,3.85
2023-04-24T17:39:02.236Z,3.80
2023-04-24T17:42:04.454Z,4.15
2023-04-24T17:45:07.415Z,4.10
2023-04-24T17:48:09.475Z,3.38
2023-04-24T17:51:14.189Z,2.80
2023-04-24T17:54:18.239Z,2.63
2023-04-24T17:57:20.994Z,2.42
2023-04-24T18:00:23.526Z,2.78
2023-04-24T18:03:26.203Z,3.65
2023-04-24T18:06:29.731Z,6.35
2023-04-24T18:09:32.105Z,4.00
2023-04-24T18:12:34.405Z,3.80
2023-04-24T18:15:37.043Z,4.10
2023-04-24T18:18:39.421Z,4.18
2023-04-24T18:21:42.189Z,4.93
2023-04-24T18:24:44.884Z,5.53
2023-04-24T18:27:52.152Z,4.75
2023-04-24T18:30:55.217Z,5.25
2023-04-24T18:33:58.127Z,5.75
2023-04-24T18:37:00.587Z,6.10
2023-04-24T18:40:03.970Z,5.67
2023-04-24T18:43:21.761Z,5.20
2023-04-24T18:46:26.085Z,4.93
2023-04-24T18:49:35.132Z,4.85
2023-04-24T18:52:41.475Z,4.97
2023-04-24T18:55:56.463Z,4.05
2023-04-24T18:59:00.443Z,3.33
2023-04-24T19:02:10.013Z,3.50
2023-04-24T19:05:26.025Z,3.88
2023-04-24T19:08:36.186Z,3.73
2023-04-24T19:12:06.290Z,4.63
2023-04-24T19:16:37.792Z,4.63
2023-04-24T19:20:10.571Z,5.17
2023-04-24T19:23:58.124Z,7.27
2023-04-24T19:27:07.154Z,9.17
2023-04-24T19:30:11.865Z,9.27
2023-04-24T19:33:18.022Z,9.53
2023-04-24T19:36:28.643Z,22.60
2023-04-24T19:39:38.098Z,11.13
2023-04-24T19:42:44.253Z,9.20
2023-04-24T19:45:51.204Z,9.23
2023-04-24T19:48:53.738Z,8.80
2023-04-24T19:51:57.244Z,8.55
2023-04-24T19:55:00.943Z,8.27
2023-04-24T19:58:03.933Z,7.47
2023-04-24T20:01:12.291Z,7.60
2023-04-24T20:04:35.026Z,8.75
2023-04-24T20:07:37.945Z,6.93
2023-04-24T20:11:03.671Z,6.87
2023-04-24T20:14:56.345Z,7.37
2023-04-24T20:18:30.531Z,7.17
2023-04-24T20:22:01.785Z,7.53
2023-04-24T20:25:41.988Z,5.72
2023-04-24T20:29:55.786Z,6.40
2023-04-24T20:33:06.569Z,6.23
2023-04-24T20:36:16.894Z,6.17
2023-04-24T20:39:23.025Z,7.37
2023-04-24T20:47:06.641Z,6.50
2023-04-24T20:50:09.480Z,7.53
2023-04-24T20:53:17.367Z,6.67
2023-04-24T20:56:33.895Z,6.80
2023-04-24T20:59:36.789Z,7.03
2023-04-24T21:03:01.688Z,7.47
2023-04-24T21:10:42.383Z,7.50
2023-04-24T21:14:25.161Z,7.60
2023-04-24T21:18:12.791Z,7.83
2023-04-24T21:21:48.855Z,7.60
2023-04-24T21:28:47.637Z,14.63
2023-04-24T21:36:17.117Z,7.07
2023-04-24T21:39:21.894Z,7.03
2023-04-24T21:42:24.157Z,6.23
2023-04-24T21:47:01.384Z,6.23
2023-04-24T21:50:11.552Z,5.50
2023-04-24T21:53:57.872Z,5.37
2023-04-24T22:02:00.746Z,4.23
2023-04-24T22:05:17.707Z,4.53
2023-04-24T22:09:00.661Z,4.43
2023-04-24T22:13:11.666Z,4.03
2023-04-24T22:16:57.126Z,4.37
2023-04-24T22:20:23.130Z,4.70
2023-04-24T22:29:10.390Z,4.83
2023-04-24T22:33:06.051Z,4.57
2023-04-24T22:40:56.505Z,3.70
2023-04-24T22:44:39.765Z,3.30
2023-04-24T22:49:37.240Z,2.80
2023-04-24T22:53:03.198Z,2.77
2023-04-24T23:04:03.846Z,2.70
2023-04-24T23:07:13.168Z,2.00
2023-04-24T23:10:15.109Z,2.30
2023-04-24T23:23:35.398Z,1.83
2023-04-24T23:31:28.533Z,1.60
2023-04-24T23:35:19.232Z,1.70
2023-04-24T23:39:09.893Z,1.47
